sensor_id;sensor_type;location;lat;lon;timestamp;P1;durP1;ratioP1;P2;durP2;ratioP2
24739;SDS011;45234;48.148;17.128;2023-06-04T00:02:10;14.27;;;9.68;;
24739;SDS011;45234;48.148;17.128;2023-06-04T00:04:37;12.20;;;8.57;;
24739;SDS011;45234;48.148;17.128;2023-06-04T00:07:05;16.75;;;9.57;;
24739;SDS011;45234;48.148;17.128;2023-06-04T00:09:32;15.45;;;9.30;;
24739;SDS011;45234;48.148;17.128;2023-06-04T00:11:59;10.05;;;6.53;;
24739;SDS011;45234;48.148;17.128;2023-06-04T00:14:26;8.38;;;6.38;;
24739;SDS011;45234;48.148;17.128;2023-06-04T00:16:53;11.30;;;6.57;;
24739;SDS011;45234;48.148;17.128;2023-06-04T00:19:20;11.57;;;6.28;;
24739;SDS011;45234;48.148;17.128;2023-06-04T00:21:46;9.98;;;5.47;;
24739;SDS011;45234;48.148;17.128;2023-06-04T00:24:14;6.82;;;5.22;;
24739;SDS011;45234;48.148;17.128;2023-06-04T00:26:41;12.43;;;4.97;;
24739;SDS011;45234;48.148;17.128;2023-06-04T00:29:08;7.32;;;4.50;;
24739;SDS011;45234;48.148;17.128;2023-06-04T00:31:35;8.07;;;4.68;;
24739;SDS011;45234;48.148;17.128;2023-06-04T00:34:03;8.90;;;4.55;;
24739;SDS011;45234;48.148;17.128;2023-06-04T00:36:30;5.90;;;3.97;;
24739;SDS011;45234;48.148;17.128;2023-06-04T00:38:58;5.65;;;4.30;;
24739;SDS011;45234;48.148;17.128;2023-06-04T00:41:25;6.45;;;3.97;;
24739;SDS011;45234;48.148;17.128;2023-06-04T00:43:52;9.23;;;4.50;;
24739;SDS011;45234;48.148;17.128;2023-06-04T00:46:23;8.25;;;4.88;;
24739;SDS011;45234;48.148;17.128;2023-06-04T00:48:51;9.80;;;5.38;;
24739;SDS011;45234;48.148;17.128;2023-06-04T00:51:19;8.45;;;5.93;;
24739;SDS011;45234;48.148;17.128;2023-06-04T00:53:48;9.15;;;5.28;;
24739;SDS011;45234;48.148;17.128;2023-06-04T00:56:16;9.20;;;5.32;;
24739;SDS011;45234;48.148;17.128;2023-06-04T00:58:44;10.63;;;5.97;;
24739;SDS011;45234;48.148;17.128;2023-06-04T01:01:18;8.70;;;5.85;;
24739;SDS011;45234;48.148;17.128;2023-06-04T01:04:08;8.57;;;5.78;;
24739;SDS011;45234;48.148;17.128;2023-06-04T01:06:47;7.43;;;5.10;;
24739;SDS011;45234;48.148;17.128;2023-06-04T01:09:17;6.60;;;4.80;;
24739;SDS011;45234;48.148;17.128;2023-06-04T01:11:45;9.25;;;4.97;;
24739;SDS011;45234;48.148;17.128;2023-06-04T01:14:14;8.60;;;5.07;;
24739;SDS011;45234;48.148;17.128;2023-06-04T01:22:39;7.18;;;4.22;;
24739;SDS011;45234;48.148;17.128;2023-06-04T01:25:12;5.82;;;4.10;;
24739;SDS011;45234;48.148;17.128;2023-06-04T01:27:49;6.03;;;4.15;;
24739;SDS011;45234;48.148;17.128;2023-06-04T01:30:23;5.10;;;3.83;;
24739;SDS011;45234;48.148;17.128;2023-06-04T01:32:52;5.82;;;3.42;;
24739;SDS011;45234;48.148;17.128;2023-06-04T01:35:22;7.60;;;4.00;;
24739;SDS011;45234;48.148;17.128;2023-06-04T01:37:53;8.35;;;3.92;;
24739;SDS011;45234;48.148;17.128;2023-06-04T01:40:21;6.53;;;3.83;;
24739;SDS011;45234;48.148;17.128;2023-06-04T01:42:48;6.72;;;3.78;;
24739;SDS011;45234;48.148;17.128;2023-06-04T01:45:16;6.43;;;3.75;;
24739;SDS011;45234;48.148;17.128;2023-06-04T01:47:43;8.57;;;3.78;;
24739;SDS011;45234;48.148;17.128;2023-06-04T01:50:10;5.53;;;3.25;;
24739;SDS011;45234;48.148;17.128;2023-06-04T01:52:37;5.35;;;3.60;;
24739;SDS011;45234;48.148;17.128;2023-06-04T01:55:06;5.20;;;3.15;;
24739;SDS011;45234;48.148;17.128;2023-06-04T01:57:35;7.80;;;3.80;;
24739;SDS011;45234;48.148;17.128;2023-06-04T02:00:03;6.95;;;3.78;;
24739;SDS011;45234;48.148;17.128;2023-06-04T02:02:41;7.88;;;4.53;;
24739;SDS011;45234;48.148;17.128;2023-06-04T02:05:13;7.38;;;3.30;;
24739;SDS011;45234;48.148;17.128;2023-06-04T02:07:42;7.72;;;2.92;;
24739;SDS011;45234;48.148;17.128;2023-06-04T02:10:11;5.90;;;3.17;;
24739;SDS011;45234;48.148;17.128;2023-06-04T02:12:41;6.50;;;2.70;;
24739;SDS011;45234;48.148;17.128;2023-06-04T02:15:20;5.22;;;3.10;;
24739;SDS011;45234;48.148;17.128;2023-06-04T02:17:50;4.35;;;2.90;;
24739;SDS011;45234;48.148;17.128;2023-06-04T02:20:21;6.22;;;2.88;;
24739;SDS011;45234;48.148;17.128;2023-06-04T02:22:48;7.18;;;3.35;;
24739;SDS011;45234;48.148;17.128;2023-06-04T02:25:15;5.80;;;3.72;;
24739;SDS011;45234;48.148;17.128;2023-06-04T02:27:42;4.45;;;3.20;;
24739;SDS011;45234;48.148;17.128;2023-06-04T02:30:09;6.63;;;3.15;;
24739;SDS011;45234;48.148;17.128;2023-06-04T02:32:36;6.50;;;3.08;;
24739;SDS011;45234;48.148;17.128;2023-06-04T02:35:03;6.32;;;3.20;;
24739;SDS011;45234;48.148;17.128;2023-06-04T02:37:30;5.60;;;3.22;;
24739;SDS011;45234;48.148;17.128;2023-06-04T02:39:57;6.15;;;3.15;;
24739;SDS011;45234;48.148;17.128;2023-06-04T02:42:25;9.25;;;3.85;;
24739;SDS011;45234;48.148;17.128;2023-06-04T02:44:52;5.38;;;2.70;;
24739;SDS011;45234;48.148;17.128;2023-06-04T02:47:19;4.82;;;2.83;;
24739;SDS011;45234;48.148;17.128;2023-06-04T02:49:46;5.50;;;2.67;;
24739;SDS011;45234;48.148;17.128;2023-06-04T02:52:12;4.57;;;2.72;;
24739;SDS011;45234;48.148;17.128;2023-06-04T02:54:39;4.45;;;2.67;;
24739;SDS011;45234;48.148;17.128;2023-06-04T02:57:08;6.43;;;2.80;;
24739;SDS011;45234;48.148;17.128;2023-06-04T02:59:34;4.65;;;2.63;;
24739;SDS011;45234;48.148;17.128;2023-06-04T03:02:03;4.40;;;2.72;;
24739;SDS011;45234;48.148;17.128;2023-06-04T03:04:31;7.20;;;2.78;;
24739;SDS011;45234;48.148;17.128;2023-06-04T03:07:03;4.47;;;2.55;;
24739;SDS011;45234;48.148;17.128;2023-06-04T03:09:30;6.15;;;3.00;;
24739;SDS011;45234;48.148;17.128;2023-06-04T03:11:59;4.63;;;2.38;;
24739;SDS011;45234;48.148;17.128;2023-06-04T03:14:28;5.00;;;2.63;;
24739;SDS011;45234;48.148;17.128;2023-06-04T03:16:59;5.30;;;2.80;;
24739;SDS011;45234;48.148;17.128;2023-06-04T03:19:36;4.60;;;2.53;;
24739;SDS011;45234;48.148;17.128;2023-06-04T03:22:04;6.38;;;2.65;;
24739;SDS011;45234;48.148;17.128;2023-06-04T03:24:33;7.22;;;2.40;;
24739;SDS011;45234;48.148;17.128;2023-06-04T03:27:02;4.50;;;2.45;;
24739;SDS011;45234;48.148;17.128;2023-06-04T03:29:31;5.32;;;2.85;;
24739;SDS011;45234;48.148;17.128;2023-06-04T03:32:01;6.75;;;2.53;;
24739;SDS011;45234;48.148;17.128;2023-06-04T03:34:30;5.15;;;2.47;;
24739;SDS011;45234;48.148;17.128;2023-06-04T03:37:00;6.38;;;2.78;;
24739;SDS011;45234;48.148;17.128;2023-06-04T03:39:29;6.13;;;2.10;;
24739;SDS011;45234;48.148;17.128;2023-06-04T03:41:57;5.68;;;2.08;;
24739;SDS011;45234;48.148;17.128;2023-06-04T03:44:25;9.52;;;3.17;;
24739;SDS011;45234;48.148;17.128;2023-06-04T03:46:52;4.38;;;1.98;;
24739;SDS011;45234;48.148;17.128;2023-06-04T03:49:19;7.57;;;2.53;;
24739;SDS011;45234;48.148;17.128;2023-06-04T03:51:48;4.75;;;2.20;;
24739;SDS011;45234;48.148;17.128;2023-06-04T03:54:17;4.13;;;1.92;;
24739;SDS011;45234;48.148;17.128;2023-06-04T03:56:46;4.93;;;2.28;;
24739;SDS011;45234;48.148;17.128;2023-06-04T03:59:13;4.80;;;2.70;;
24739;SDS011;45234;48.148;17.128;2023-06-04T04:01:41;4.40;;;2.10;;
24739;SDS011;45234;48.148;17.128;2023-06-04T04:04:08;5.28;;;2.10;;
24739;SDS011;45234;48.148;17.128;2023-06-04T04:06:36;5.03;;;2.15;;
24739;SDS011;45234;48.148;17.128;2023-06-04T04:09:03;4.43;;;1.98;;
24739;SDS011;45234;48.148;17.128;2023-06-04T04:11:35;3.95;;;2.10;;
24739;SDS011;45234;48.148;17.128;2023-06-04T04:14:02;4.93;;;2.38;;
24739;SDS011;45234;48.148;17.128;2023-06-04T04:16:29;3.65;;;1.80;;
24739;SDS011;45234;48.148;17.128;2023-06-04T04:18:57;3.35;;;2.22;;
24739;SDS011;45234;48.148;17.128;2023-06-04T04:21:24;3.30;;;2.05;;
24739;SDS011;45234;48.148;17.128;2023-06-04T04:23:52;5.10;;;2.30;;
24739;SDS011;45234;48.148;17.128;2023-06-04T04:26:19;3.65;;;1.90;;
24739;SDS011;45234;48.148;17.128;2023-06-04T04:28:50;3.78;;;2.28;;
24739;SDS011;45234;48.148;17.128;2023-06-04T04:31:19;4.93;;;2.00;;
24739;SDS011;45234;48.148;17.128;2023-06-04T04:33:49;4.85;;;1.90;;
24739;SDS011;45234;48.148;17.128;2023-06-04T04:36:17;3.83;;;2.22;;
24739;SDS011;45234;48.148;17.128;2023-06-04T04:38:47;4.32;;;2.28;;
24739;SDS011;45234;48.148;17.128;2023-06-04T04:41:27;7.35;;;2.55;;
24739;SDS011;45234;48.148;17.128;2023-06-04T04:44:02;2.80;;;1.88;;
24739;SDS011;45234;48.148;17.128;2023-06-04T04:46:31;5.22;;;1.80;;
24739;SDS011;45234;48.148;17.128;2023-06-04T04:48:58;5.22;;;1.98;;
24739;SDS011;45234;48.148;17.128;2023-06-04T04:51:25;3.28;;;1.83;;
24739;SDS011;45234;48.148;17.128;2023-06-04T04:53:53;4.55;;;1.90;;
24739;SDS011;45234;48.148;17.128;2023-06-04T04:56:22;4.07;;;2.05;;
24739;SDS011;45234;48.148;17.128;2023-06-04T04:58:50;2.95;;;1.80;;
24739;SDS011;45234;48.148;17.128;2023-06-04T05:01:17;2.67;;;1.77;;
24739;SDS011;45234;48.148;17.128;2023-06-04T05:03:45;5.43;;;1.90;;
24739;SDS011;45234;48.148;17.128;2023-06-04T05:06:14;5.10;;;1.98;;
24739;SDS011;45234;48.148;17.128;2023-06-04T05:08:42;2.63;;;1.80;;
24739;SDS011;45234;48.148;17.128;2023-06-04T05:11:10;4.35;;;1.73;;
24739;SDS011;45234;48.148;17.128;2023-06-04T05:13:39;3.72;;;2.10;;
24739;SDS011;45234;48.148;17.128;2023-06-04T05:16:13;3.65;;;2.00;;
24739;SDS011;45234;48.148;17.128;2023-06-04T05:18:41;5.85;;;2.00;;
24739;SDS011;45234;48.148;17.128;2023-06-04T05:21:15;8.25;;;2.65;;
24739;SDS011;45234;48.148;17.128;2023-06-04T05:23:49;4.18;;;1.48;;
24739;SDS011;45234;48.148;17.128;2023-06-04T05:26:18;5.43;;;2.00;;
24739;SDS011;45234;48.148;17.128;2023-06-04T05:28:50;2.78;;;1.73;;
24739;SDS011;45234;48.148;17.128;2023-06-04T05:31:17;3.28;;;2.08;;
24739;SDS011;45234;48.148;17.128;2023-06-04T05:33:45;3.28;;;1.80;;
24739;SDS011;45234;48.148;17.128;2023-06-04T05:36:16;3.60;;;2.08;;
24739;SDS011;45234;48.148;17.128;2023-06-04T05:38:50;4.50;;;1.98;;
24739;SDS011;45234;48.148;17.128;2023-06-04T05:41:27;4.53;;;1.98;;
24739;SDS011;45234;48.148;17.128;2023-06-04T05:43:56;3.85;;;1.90;;
24739;SDS011;45234;48.148;17.128;2023-06-04T05:46:23;4.57;;;1.80;;
24739;SDS011;45234;48.148;17.128;2023-06-04T05:48:51;6.22;;;2.28;;
24739;SDS011;45234;48.148;17.128;2023-06-04T05:51:21;4.80;;;1.80;;
24739;SDS011;45234;48.148;17.128;2023-06-04T05:53:48;2.80;;;2.05;;
24739;SDS011;45234;48.148;17.128;2023-06-04T05:56:16;4.60;;;2.45;;
24739;SDS011;45234;48.148;17.128;2023-06-04T05:58:43;4.25;;;1.85;;
24739;SDS011;45234;48.148;17.128;2023-06-04T06:01:16;3.90;;;1.65;;
24739;SDS011;45234;48.148;17.128;2023-06-04T06:03:43;8.98;;;2.65;;
24739;SDS011;45234;48.148;17.128;2023-06-04T06:06:11;4.43;;;1.80;;
24739;SDS011;45234;48.148;17.128;2023-06-04T06:08:38;4.38;;;2.00;;
24739;SDS011;45234;48.148;17.128;2023-06-04T06:11:06;4.30;;;1.92;;
24739;SDS011;45234;48.148;17.128;2023-06-04T06:13:36;3.22;;;2.03;;
24739;SDS011;45234;48.148;17.128;2023-06-04T06:16:03;3.63;;;1.80;;
24739;SDS011;45234;48.148;17.128;2023-06-04T06:18:31;3.10;;;1.70;;
24739;SDS011;45234;48.148;17.128;2023-06-04T06:20:58;4.70;;;2.13;;
24739;SDS011;45234;48.148;17.128;2023-06-04T06:23:26;3.95;;;1.92;;
24739;SDS011;45234;48.148;17.128;2023-06-04T06:25:53;3.30;;;1.90;;
24739;SDS011;45234;48.148;17.128;2023-06-04T06:28:25;4.50;;;1.92;;
24739;SDS011;45234;48.148;17.128;2023-06-04T06:30:53;5.45;;;2.03;;
24739;SDS011;45234;48.148;17.128;2023-06-04T06:33:20;4.78;;;2.15;;
24739;SDS011;45234;48.148;17.128;2023-06-04T06:35:49;3.05;;;1.80;;
24739;SDS011;45234;48.148;17.128;2023-06-04T06:38:16;5.32;;;1.80;;
24739;SDS011;45234;48.148;17.128;2023-06-04T06:40:45;2.17;;;1.70;;
24739;SDS011;45234;48.148;17.128;2023-06-04T06:43:13;3.05;;;2.10;;
24739;SDS011;45234;48.148;17.128;2023-06-04T06:45:41;3.80;;;2.10;;
24739;SDS011;45234;48.148;17.128;2023-06-04T06:48:08;4.43;;;2.08;;
24739;SDS011;45234;48.148;17.128;2023-06-04T06:50:35;6.60;;;2.40;;
24739;SDS011;45234;48.148;17.128;2023-06-04T06:53:02;7.53;;;2.53;;
24739;SDS011;45234;48.148;17.128;2023-06-04T06:55:29;6.25;;;2.00;;
24739;SDS011;45234;48.148;17.128;2023-06-04T06:57:56;9.48;;;2.55;;
24739;SDS011;45234;48.148;17.128;2023-06-04T07:00:25;3.50;;;1.90;;
24739;SDS011;45234;48.148;17.128;2023-06-04T07:02:54;3.63;;;2.08;;
24739;SDS011;45234;48.148;17.128;2023-06-04T07:05:22;4.05;;;2.38;;
24739;SDS011;45234;48.148;17.128;2023-06-04T07:07:49;3.20;;;1.90;;
24739;SDS011;45234;48.148;17.128;2023-06-04T07:10:15;7.93;;;1.98;;
24739;SDS011;45234;48.148;17.128;2023-06-04T07:12:42;5.97;;;2.78;;
24739;SDS011;45234;48.148;17.128;2023-06-04T07:15:09;3.80;;;2.10;;
24739;SDS011;45234;48.148;17.128;2023-06-04T07:17:36;5.18;;;2.13;;
24739;SDS011;45234;48.148;17.128;2023-06-04T07:20:03;3.53;;;2.00;;
24739;SDS011;45234;48.148;17.128;2023-06-04T07:22:32;6.35;;;2.17;;
24739;SDS011;45234;48.148;17.128;2023-06-04T07:25:00;5.07;;;1.60;;
24739;SDS011;45234;48.148;17.128;2023-06-04T07:27:28;3.88;;;2.45;;
24739;SDS011;45234;48.148;17.128;2023-06-04T07:29:55;4.70;;;2.55;;
24739;SDS011;45234;48.148;17.128;2023-06-04T07:32:22;4.45;;;2.38;;
24739;SDS011;45234;48.148;17.128;2023-06-04T07:34:49;7.45;;;2.20;;
24739;SDS011;45234;48.148;17.128;2023-06-04T07:37:16;6.55;;;2.53;;
24739;SDS011;45234;48.148;17.128;2023-06-04T07:39:43;5.13;;;2.88;;
24739;SDS011;45234;48.148;17.128;2023-06-04T07:42:10;7.63;;;2.40;;
24739;SDS011;45234;48.148;17.128;2023-06-04T07:44:37;3.63;;;2.25;;
24739;SDS011;45234;48.148;17.128;2023-06-04T07:47:04;3.92;;;2.10;;
24739;SDS011;45234;48.148;17.128;2023-06-04T07:49:31;6.70;;;2.30;;
24739;SDS011;45234;48.148;17.128;2023-06-04T07:51:58;2.97;;;1.83;;
24739;SDS011;45234;48.148;17.128;2023-06-04T07:54:26;5.35;;;2.55;;
24739;SDS011;45234;48.148;17.128;2023-06-04T07:56:53;2.88;;;2.30;;
24739;SDS011;45234;48.148;17.128;2023-06-04T07:59:22;6.20;;;2.60;;
24739;SDS011;45234;48.148;17.128;2023-06-04T08:01:50;3.80;;;2.38;;
24739;SDS011;45234;48.148;17.128;2023-06-04T08:04:17;6.53;;;2.40;;
24739;SDS011;45234;48.148;17.128;2023-06-04T08:06:46;6.88;;;2.50;;
24739;SDS011;45234;48.148;17.128;2023-06-04T08:09:13;5.20;;;2.20;;
24739;SDS011;45234;48.148;17.128;2023-06-04T08:11:41;3.63;;;2.38;;
24739;SDS011;45234;48.148;17.128;2023-06-04T08:14:11;3.78;;;2.35;;
24739;SDS011;45234;48.148;17.128;2023-06-04T08:16:39;5.45;;;2.30;;
24739;SDS011;45234;48.148;17.128;2023-06-04T08:19:29;5.13;;;2.47;;
24739;SDS011;45234;48.148;17.128;2023-06-04T08:21:57;6.13;;;2.70;;
24739;SDS011;45234;48.148;17.128;2023-06-04T08:24:36;3.60;;;2.35;;
24739;SDS011;45234;48.148;17.128;2023-06-04T08:27:23;5.88;;;2.38;;
24739;SDS011;45234;48.148;17.128;2023-06-04T08:29:52;5.03;;;2.67;;
24739;SDS011;45234;48.148;17.128;2023-06-04T08:32:39;5.20;;;2.55;;
24739;SDS011;45234;48.148;17.128;2023-06-04T08:35:15;7.82;;;2.75;;
24739;SDS011;45234;48.148;17.128;2023-06-04T08:37:42;4.43;;;2.33;;
24739;SDS011;45234;48.148;17.128;2023-06-04T08:40:09;8.23;;;2.28;;
24739;SDS011;45234;48.148;17.128;2023-06-04T08:42:41;5.72;;;2.25;;
24739;SDS011;45234;48.148;17.128;2023-06-04T08:47:43;3.97;;;2.55;;
24739;SDS011;45234;48.148;17.128;2023-06-04T08:50:14;4.88;;;2.20;;
24739;SDS011;45234;48.148;17.128;2023-06-04T08:52:44;5.53;;;3.25;;
24739;SDS011;45234;48.148;17.128;2023-06-04T08:55:12;3.17;;;2.40;;
24739;SDS011;45234;48.148;17.128;2023-06-04T08:57:41;3.58;;;2.33;;
24739;SDS011;45234;48.148;17.128;2023-06-04T09:00:09;7.78;;;2.85;;
24739;SDS011;45234;48.148;17.128;2023-06-04T09:02:36;8.43;;;2.80;;
24739;SDS011;45234;48.148;17.128;2023-06-04T09:05:05;4.50;;;2.20;;
24739;SDS011;45234;48.148;17.128;2023-06-04T09:07:36;4.22;;;2.40;;
24739;SDS011;45234;48.148;17.128;2023-06-04T09:10:06;4.35;;;2.58;;
24739;SDS011;45234;48.148;17.128;2023-06-04T09:12:43;5.32;;;2.58;;
24739;SDS011;45234;48.148;17.128;2023-06-04T09:15:13;3.53;;;2.53;;
24739;SDS011;45234;48.148;17.128;2023-06-04T09:17:40;7.13;;;3.30;;
24739;SDS011;45234;48.148;17.128;2023-06-04T09:20:07;5.20;;;2.42;;
24739;SDS011;45234;48.148;17.128;2023-06-04T09:22:44;3.38;;;2.53;;
24739;SDS011;45234;48.148;17.128;2023-06-04T09:25:18;3.75;;;2.60;;
24739;SDS011;45234;48.148;17.128;2023-06-04T09:27:47;5.90;;;2.80;;
24739;SDS011;45234;48.148;17.128;2023-06-04T09:30:15;4.18;;;2.63;;
24739;SDS011;45234;48.148;17.128;2023-06-04T09:32:42;3.97;;;2.75;;
24739;SDS011;45234;48.148;17.128;2023-06-04T09:35:12;3.85;;;2.42;;
24739;SDS011;45234;48.148;17.128;2023-06-04T09:37:56;7.35;;;2.78;;
24739;SDS011;45234;48.148;17.128;2023-06-04T09:40:35;6.10;;;2.47;;
24739;SDS011;45234;48.148;17.128;2023-06-04T09:43:06;6.82;;;2.78;;
24739;SDS011;45234;48.148;17.128;2023-06-04T09:45:34;3.72;;;2.75;;
24739;SDS011;45234;48.148;17.128;2023-06-04T09:48:02;3.63;;;2.50;;
24739;SDS011;45234;48.148;17.128;2023-06-04T09:50:35;8.02;;;2.95;;
24739;SDS011;45234;48.148;17.128;2023-06-04T09:53:15;5.82;;;2.60;;
24739;SDS011;45234;48.148;17.128;2023-06-04T09:55:43;3.55;;;2.20;;
24739;SDS011;45234;48.148;17.128;2023-06-04T09:58:10;6.05;;;2.40;;
24739;SDS011;45234;48.148;17.128;2023-06-04T10:00:39;3.92;;;2.67;;
24739;SDS011;45234;48.148;17.128;2023-06-04T10:03:08;4.28;;;2.50;;
24739;SDS011;45234;48.148;17.128;2023-06-04T10:05:38;5.18;;;2.70;;
24739;SDS011;45234;48.148;17.128;2023-06-04T10:08:06;8.35;;;2.63;;
24739;SDS011;45234;48.148;17.128;2023-06-04T10:10:36;7.10;;;2.65;;
24739;SDS011;45234;48.148;17.128;2023-06-04T10:13:19;5.72;;;3.05;;
24739;SDS011;45234;48.148;17.128;2023-06-04T10:15:46;7.60;;;3.00;;
24739;SDS011;45234;48.148;17.128;2023-06-04T10:18:14;3.50;;;2.35;;
24739;SDS011;45234;48.148;17.128;2023-06-04T10:20:42;5.63;;;2.22;;
24739;SDS011;45234;48.148;17.128;2023-06-04T10:23:10;5.75;;;2.35;;
24739;SDS011;45234;48.148;17.128;2023-06-04T10:25:38;8.32;;;2.42;;
24739;SDS011;45234;48.148;17.128;2023-06-04T10:28:05;5.88;;;3.13;;
24739;SDS011;45234;48.148;17.128;2023-06-04T10:30:32;4.03;;;2.63;;
24739;SDS011;45234;48.148;17.128;2023-06-04T10:32:59;5.05;;;2.38;;
24739;SDS011;45234;48.148;17.128;2023-06-04T10:35:32;3.58;;;2.58;;
24739;SDS011;45234;48.148;17.128;2023-06-04T10:38:07;6.45;;;3.45;;
24739;SDS011;45234;48.148;17.128;2023-06-04T10:40:36;4.20;;;2.70;;
24739;SDS011;45234;48.148;17.128;2023-06-04T10:43:10;5.35;;;2.97;;
24739;SDS011;45234;48.148;17.128;2023-06-04T10:45:39;5.03;;;3.05;;
24739;SDS011;45234;48.148;17.128;2023-06-04T10:48:07;6.43;;;2.80;;
24739;SDS011;45234;48.148;17.128;2023-06-04T10:50:47;5.60;;;3.00;;
24739;SDS011;45234;48.148;17.128;2023-06-04T10:53:16;4.70;;;3.00;;
24739;SDS011;45234;48.148;17.128;2023-06-04T10:55:45;4.50;;;2.90;;
24739;SDS011;45234;48.148;17.128;2023-06-04T10:58:13;6.55;;;2.60;;
24739;SDS011;45234;48.148;17.128;2023-06-04T11:00:42;5.78;;;2.63;;
24739;SDS011;45234;48.148;17.128;2023-06-04T11:03:16;4.57;;;2.88;;
24739;SDS011;45234;48.148;17.128;2023-06-04T11:05:44;7.05;;;2.92;;
24739;SDS011;45234;48.148;17.128;2023-06-04T11:08:13;3.95;;;2.85;;
24739;SDS011;45234;48.148;17.128;2023-06-04T11:10:42;5.45;;;3.30;;
24739;SDS011;45234;48.148;17.128;2023-06-04T11:13:11;4.65;;;2.75;;
24739;SDS011;45234;48.148;17.128;2023-06-04T11:18:14;6.78;;;2.75;;
24739;SDS011;45234;48.148;17.128;2023-06-04T11:20:43;6.18;;;2.67;;
24739;SDS011;45234;48.148;17.128;2023-06-04T11:23:15;8.65;;;3.50;;
24739;SDS011;45234;48.148;17.128;2023-06-04T11:25:42;5.53;;;3.45;;
24739;SDS011;45234;48.148;17.128;2023-06-04T11:28:17;2.88;;;2.60;;
24739;SDS011;45234;48.148;17.128;2023-06-04T11:31:05;3.80;;;2.88;;
24739;SDS011;45234;48.148;17.128;2023-06-04T11:33:42;7.22;;;4.10;;
24739;SDS011;45234;48.148;17.128;2023-06-04T11:36:10;6.47;;;3.20;;
24739;SDS011;45234;48.148;17.128;2023-06-04T11:39:00;7.32;;;3.22;;
24739;SDS011;45234;48.148;17.128;2023-06-04T11:41:29;6.03;;;2.92;;
24739;SDS011;45234;48.148;17.128;2023-06-04T11:43:57;6.50;;;3.45;;
24739;SDS011;45234;48.148;17.128;2023-06-04T11:46:26;4.13;;;3.05;;
24739;SDS011;45234;48.148;17.128;2023-06-04T11:48:54;5.22;;;2.63;;
24739;SDS011;45234;48.148;17.128;2023-06-04T11:51:21;6.53;;;2.90;;
24739;SDS011;45234;48.148;17.128;2023-06-04T11:53:49;4.07;;;2.97;;
24739;SDS011;45234;48.148;17.128;2023-06-04T11:56:16;8.07;;;3.20;;
24739;SDS011;45234;48.148;17.128;2023-06-04T11:58:45;4.80;;;3.08;;
24739;SDS011;45234;48.148;17.128;2023-06-04T12:01:12;5.15;;;3.42;;
24739;SDS011;45234;48.148;17.128;2023-06-04T12:03:40;3.45;;;2.75;;
24739;SDS011;45234;48.148;17.128;2023-06-04T12:06:11;4.88;;;3.10;;
24739;SDS011;45234;48.148;17.128;2023-06-04T12:08:55;7.03;;;3.20;;
24739;SDS011;45234;48.148;17.128;2023-06-04T12:11:27;7.75;;;3.67;;
24739;SDS011;45234;48.148;17.128;2023-06-04T12:14:00;4.80;;;2.67;;
24739;SDS011;45234;48.148;17.128;2023-06-04T12:16:32;4.20;;;2.90;;
24739;SDS011;45234;48.148;17.128;2023-06-04T12:19:09;6.28;;;3.28;;
24739;SDS011;45234;48.148;17.128;2023-06-04T12:21:37;3.97;;;3.10;;
24739;SDS011;45234;48.148;17.128;2023-06-04T12:24:05;4.32;;;2.75;;
24739;SDS011;45234;48.148;17.128;2023-06-04T12:26:37;7.18;;;3.38;;
24739;SDS011;45234;48.148;17.128;2023-06-04T12:29:10;5.05;;;2.90;;
24739;SDS011;45234;48.148;17.128;2023-06-04T12:31:42;5.45;;;3.17;;
24739;SDS011;45234;48.148;17.128;2023-06-04T12:34:13;4.95;;;3.17;;
24739;SDS011;45234;48.148;17.128;2023-06-04T12:36:40;5.78;;;3.00;;
24739;SDS011;45234;48.148;17.128;2023-06-04T12:39:08;7.35;;;2.92;;
24739;SDS011;45234;48.148;17.128;2023-06-04T12:41:36;7.20;;;2.85;;
24739;SDS011;45234;48.148;17.128;2023-06-04T12:44:03;6.00;;;3.03;;
24739;SDS011;45234;48.148;17.128;2023-06-04T12:46:30;4.25;;;3.05;;
24739;SDS011;45234;48.148;17.128;2023-06-04T12:48:57;7.35;;;2.78;;
24739;SDS011;45234;48.148;17.128;2023-06-04T12:51:25;4.28;;;2.88;;
24739;SDS011;45234;48.148;17.128;2023-06-04T12:53:52;5.25;;;3.28;;
24739;SDS011;45234;48.148;17.128;2023-06-04T12:56:19;4.57;;;2.90;;
24739;SDS011;45234;48.148;17.128;2023-06-04T12:58:46;7.18;;;3.45;;
24739;SDS011;45234;48.148;17.128;2023-06-04T13:01:13;5.07;;;2.95;;
24739;SDS011;45234;48.148;17.128;2023-06-04T13:03:41;4.93;;;3.22;;
24739;SDS011;45234;48.148;17.128;2023-06-04T13:06:08;7.53;;;3.13;;
24739;SDS011;45234;48.148;17.128;2023-06-04T13:08:36;6.85;;;4.18;;
24739;SDS011;45234;48.148;17.128;2023-06-04T13:11:03;5.05;;;3.50;;
24739;SDS011;45234;48.148;17.128;2023-06-04T13:13:31;5.28;;;2.72;;
24739;SDS011;45234;48.148;17.128;2023-06-04T13:15:58;5.80;;;3.00;;
24739;SDS011;45234;48.148;17.128;2023-06-04T13:18:26;6.05;;;3.45;;
24739;SDS011;45234;48.148;17.128;2023-06-04T13:20:52;6.95;;;3.10;;
24739;SDS011;45234;48.148;17.128;2023-06-04T13:23:20;4.68;;;2.92;;
24739;SDS011;45234;48.148;17.128;2023-06-04T13:25:51;5.65;;;2.88;;
24739;SDS011;45234;48.148;17.128;2023-06-04T13:28:18;4.88;;;2.80;;
24739;SDS011;45234;48.148;17.128;2023-06-04T13:30:46;5.68;;;3.63;;
24739;SDS011;45234;48.148;17.128;2023-06-04T13:33:13;5.50;;;3.05;;
24739;SDS011;45234;48.148;17.128;2023-06-04T13:35:41;8.45;;;3.33;;
24739;SDS011;45234;48.148;17.128;2023-06-04T13:38:08;4.35;;;2.83;;
24739;SDS011;45234;48.148;17.128;2023-06-04T13:40:35;5.45;;;3.13;;
24739;SDS011;45234;48.148;17.128;2023-06-04T13:43:02;5.00;;;3.20;;
24739;SDS011;45234;48.148;17.128;2023-06-04T13:45:30;5.90;;;2.80;;
24739;SDS011;45234;48.148;17.128;2023-06-04T13:47:57;5.07;;;2.83;;
24739;SDS011;45234;48.148;17.128;2023-06-04T13:50:28;5.80;;;3.05;;
24739;SDS011;45234;48.148;17.128;2023-06-04T13:52:55;4.45;;;2.88;;
24739;SDS011;45234;48.148;17.128;2023-06-04T13:55:23;6.25;;;2.95;;
24739;SDS011;45234;48.148;17.128;2023-06-04T13:57:52;5.63;;;3.90;;
24739;SDS011;45234;48.148;17.128;2023-06-04T14:00:19;4.82;;;3.08;;
24739;SDS011;45234;48.148;17.128;2023-06-04T14:02:47;4.28;;;3.33;;
24739;SDS011;45234;48.148;17.128;2023-06-04T14:05:15;5.85;;;3.38;;
24739;SDS011;45234;48.148;17.128;2023-06-04T14:07:42;4.35;;;3.47;;
24739;SDS011;45234;48.148;17.128;2023-06-04T14:10:10;6.15;;;3.22;;
24739;SDS011;45234;48.148;17.128;2023-06-04T14:12:37;4.95;;;3.72;;
24739;SDS011;45234;48.148;17.128;2023-06-04T14:15:07;5.63;;;2.95;;
24739;SDS011;45234;48.148;17.128;2023-06-04T14:17:34;7.28;;;3.60;;
24739;SDS011;45234;48.148;17.128;2023-06-04T14:20:02;12.70;;;3.90;;
24739;SDS011;45234;48.148;17.128;2023-06-04T14:22:34;6.18;;;3.50;;
24739;SDS011;45234;48.148;17.128;2023-06-04T14:25:02;6.07;;;3.10;;
24739;SDS011;45234;48.148;17.128;2023-06-04T14:27:30;9.57;;;3.50;;
24739;SDS011;45234;48.148;17.128;2023-06-04T14:29:58;7.50;;;3.00;;
24739;SDS011;45234;48.148;17.128;2023-06-04T14:32:25;6.82;;;3.25;;
24739;SDS011;45234;48.148;17.128;2023-06-04T14:34:52;4.65;;;3.20;;
24739;SDS011;45234;48.148;17.128;2023-06-04T14:37:19;6.18;;;3.55;;
24739;SDS011;45234;48.148;17.128;2023-06-04T14:39:46;6.65;;;3.42;;
24739;SDS011;45234;48.148;17.128;2023-06-04T14:42:14;6.25;;;3.10;;
24739;SDS011;45234;48.148;17.128;2023-06-04T14:44:41;4.32;;;2.72;;
24739;SDS011;45234;48.148;17.128;2023-06-04T14:47:08;5.43;;;2.88;;
24739;SDS011;45234;48.148;17.128;2023-06-04T14:49:36;4.78;;;3.22;;
24739;SDS011;45234;48.148;17.128;2023-06-04T14:52:03;5.20;;;2.90;;
24739;SDS011;45234;48.148;17.128;2023-06-04T14:54:30;5.85;;;3.17;;
24739;SDS011;45234;48.148;17.128;2023-06-04T14:56:58;7.65;;;3.33;;